createdAt,value
2018-09-10T00:02:14.269Z,98396.42
2018-09-10T00:04:41.885Z,98390.56
2018-09-10T00:07:09.503Z,98391.36
2018-09-10T00:09:37.108Z,98391.60
2018-09-10T00:12:04.938Z,98391.82
2018-09-10T00:14:32.547Z,98396.53
2018-09-10T00:17:00.148Z,98389.89
2018-09-10T00:19:27.820Z,98396.75
2018-09-10T00:21:55.464Z,98401.86
2018-09-10T00:24:24.103Z,98399.52
2018-09-10T00:26:51.706Z,98404.34
2018-09-10T00:29:19.327Z,98403.33
2018-09-10T00:31:46.924Z,98403.19
2018-09-10T00:34:14.574Z,98411.72
2018-09-10T00:36:42.189Z,98410.14
2018-09-10T00:39:12.354Z,98411.12
2018-09-10T00:41:40.067Z,98406.86
2018-09-10T00:44:07.829Z,98406.05
2018-09-10T00:46:35.463Z,98416.36
2018-09-10T00:49:03.168Z,98413.87
2018-09-10T00:51:30.809Z,98407.16
2018-09-10T00:53:58.407Z,98413.00
2018-09-10T00:56:25.995Z,98414.15
2018-09-10T00:58:53.628Z,98408.81
2018-09-10T01:01:21.308Z,98400.17
2018-09-10T01:03:49.374Z,98402.16
2018-09-10T01:06:17.011Z,98402.99
2018-09-10T01:08:44.591Z,98402.45
2018-09-10T01:11:12.186Z,98399.09
2018-09-10T01:13:39.779Z,98399.72
2018-09-10T01:16:07.379Z,98403.48
2018-09-10T01:18:34.904Z,98394.84
2018-09-10T01:21:02.650Z,98399.04
2018-09-10T01:23:30.859Z,98403.23
2018-09-10T01:25:58.591Z,98389.52
2018-09-10T01:28:26.191Z,98397.98
2018-09-10T01:30:53.775Z,98401.13
2018-09-10T01:33:26.864Z,98388.99
2018-09-10T01:35:54.415Z,98393.13
2018-09-10T01:38:22.024Z,98398.44
2018-09-10T01:40:50.611Z,98396.90
2018-09-10T01:43:18.152Z,98398.02
2018-09-10T01:45:46.046Z,98393.28
2018-09-10T01:48:13.684Z,98392.37
2018-09-10T01:50:41.269Z,98398.25
2018-09-10T01:53:08.839Z,98395.31
2018-09-10T01:55:36.488Z,98399.87
2018-09-10T01:58:04.058Z,98384.31
2018-09-10T02:00:31.628Z,98397.23
2018-09-10T02:02:59.251Z,98395.77
2018-09-10T02:05:26.821Z,98389.50
2018-09-10T02:07:54.394Z,98392.86
2018-09-10T02:10:21.984Z,98387.98
2018-09-10T02:12:49.627Z,98380.47
2018-09-10T02:15:17.191Z,98378.50
2018-09-10T02:17:44.808Z,98369.58
2018-09-10T02:20:12.418Z,98374.73
2018-09-10T02:22:39.999Z,98367.98
2018-09-10T02:25:07.635Z,98364.91
2018-09-10T02:27:35.283Z,98361.23
2018-09-10T02:30:02.959Z,98360.95
2018-09-10T02:32:30.550Z,98359.27
2018-09-10T02:34:58.116Z,98359.41
2018-09-10T02:37:25.683Z,98355.08
2018-09-10T02:39:53.292Z,98350.13
2018-09-10T02:42:20.866Z,98350.01
2018-09-10T02:44:48.434Z,98347.08
2018-09-10T02:47:16.015Z,98349.09
2018-09-10T02:49:43.617Z,98342.74
2018-09-10T02:52:11.175Z,98340.72
2018-09-10T02:54:38.790Z,98343.38
2018-09-10T02:57:06.568Z,98342.12
2018-09-10T02:59:34.136Z,98341.63
2018-09-10T03:02:01.778Z,98338.96
2018-09-10T03:04:29.354Z,98342.52
2018-09-10T03:06:56.915Z,98346.99
2018-09-10T03:09:24.506Z,98349.64
2018-09-10T03:11:52.067Z,98348.47
2018-09-10T03:14:19.623Z,98354.53
2018-09-10T03:16:47.246Z,98351.97
2018-09-10T03:19:14.915Z,98354.61
2018-09-10T03:21:42.477Z,98355.58
2018-09-10T03:24:10.265Z,98356.97
2018-09-10T03:26:37.749Z,98356.56
2018-09-10T03:29:05.357Z,98349.45
2018-09-10T03:31:32.948Z,98355.88
2018-09-10T03:34:00.532Z,98347.58
2018-09-10T03:36:28.068Z,98351.34
2018-09-10T03:38:55.679Z,98354.80
2018-09-10T03:41:23.235Z,98354.25
2018-09-10T03:43:50.778Z,98357.84
2018-09-10T03:46:18.408Z,98366.36
2018-09-10T03:48:46.026Z,98360.30
2018-09-10T03:51:13.588Z,98366.50
2018-09-10T03:53:41.188Z,98362.17
2018-09-10T03:56:08.811Z,98366.84
2018-09-10T03:58:36.395Z,98363.02
2018-09-10T04:01:03.992Z,98358.69
2018-09-10T04:03:31.580Z,98360.70
2018-09-10T04:05:59.146Z,98361.05
2018-09-10T04:08:26.742Z,98362.03
2018-09-10T04:10:54.306Z,98360.64
2018-09-10T04:13:21.863Z,98365.77
2018-09-10T04:15:49.406Z,98364.38
2018-09-10T04:18:16.935Z,98363.28
2018-09-10T04:20:44.491Z,98366.13
2018-09-10T04:23:12.085Z,98363.97
2018-09-10T04:25:39.652Z,98361.66
2018-09-10T04:28:07.210Z,98358.10
2018-09-10T04:30:34.840Z,98365.77
2018-09-10T04:33:02.382Z,98362.57
2018-09-10T04:35:29.927Z,98370.31
2018-09-10T04:37:57.518Z,98369.39
2018-09-10T04:40:25.153Z,98373.91
2018-09-10T04:42:52.687Z,98370.08
2018-09-10T04:45:20.373Z,98380.45
2018-09-10T04:47:47.911Z,98382.63
2018-09-10T04:50:15.486Z,98387.22
2018-09-10T04:52:43.075Z,98393.77
2018-09-10T04:55:10.635Z,98398.03
2018-09-10T04:57:38.270Z,98407.02
2018-09-10T05:00:05.889Z,98415.13
2018-09-10T05:02:33.431Z,98407.19
2018-09-10T05:05:00.980Z,98412.13
2018-09-10T05:07:28.562Z,98408.09
2018-09-10T05:10:01.090Z,98407.95
2018-09-10T05:12:28.656Z,98408.98
2018-09-10T05:14:56.220Z,98411.23
2018-09-10T05:17:23.765Z,98411.75
2018-09-10T05:19:51.334Z,98420.48
2018-09-10T05:22:18.871Z,98419.52
2018-09-10T05:24:46.439Z,98418.78
2018-09-10T05:27:14.016Z,98413.88
2018-09-10T05:29:41.537Z,98414.59
2018-09-10T05:32:09.082Z,98407.25
2018-09-10T05:34:36.675Z,98410.88
2018-09-10T05:37:04.256Z,98412.67
2018-09-10T05:39:31.838Z,98419.34
2018-09-10T05:41:59.435Z,98420.39
2018-09-10T05:44:26.983Z,98419.17
2018-09-10T05:46:54.539Z,98412.86
2018-09-10T05:49:22.199Z,98415.77
2018-09-10T05:51:49.751Z,98415.53
2018-09-10T05:54:17.299Z,98419.48
2018-09-10T05:56:44.891Z,98415.70
2018-09-10T05:59:12.431Z,98416.58
2018-09-10T06:01:39.974Z,98413.52
2018-09-10T06:04:07.566Z,98409.68
2018-09-10T06:06:35.107Z,98408.10
2018-09-10T06:09:02.859Z,98401.39
2018-09-10T06:11:30.449Z,98405.16
2018-09-10T06:13:58.003Z,98408.63
2018-09-10T06:16:25.543Z,98405.85
2018-09-10T06:18:53.136Z,98414.45
2018-09-10T06:21:20.655Z,98416.88
2018-09-10T06:23:48.210Z,98418.02
2018-09-10T06:26:15.890Z,98411.64
2018-09-10T06:28:43.547Z,98407.30
2018-09-10T06:31:11.105Z,98408.77
2018-09-10T06:33:38.687Z,98417.67
2018-09-10T06:36:06.238Z,98412.12
2018-09-10T06:38:33.815Z,98406.84
2018-09-10T06:41:01.396Z,98401.16
2018-09-10T06:43:28.931Z,98406.63
2018-09-10T06:45:56.503Z,98406.70
2018-09-10T06:48:24.119Z,98407.52
2018-09-10T06:50:51.722Z,98415.53
2018-09-10T06:53:19.361Z,98415.44
2018-09-10T06:55:46.915Z,98409.11
2018-09-10T06:58:14.483Z,98414.22
2018-09-10T07:00:42.203Z,98406.88
2018-09-10T07:03:09.791Z,98401.55
2018-09-10T07:05:37.350Z,98406.09
2018-09-10T07:08:05.009Z,98402.98
2018-09-10T07:10:32.699Z,98403.57
2018-09-10T07:13:00.290Z,98411.30
2018-09-10T07:15:27.831Z,98414.88
2018-09-10T07:17:55.463Z,98420.73
2018-09-10T07:20:23.106Z,98424.25
2018-09-10T07:22:50.684Z,98423.69
2018-09-10T07:25:18.370Z,98422.88
2018-09-10T07:27:45.944Z,98417.47
2018-09-10T07:30:13.531Z,98423.02
2018-09-10T07:32:41.135Z,98425.59
2018-09-10T07:35:08.744Z,98426.27
2018-09-10T07:37:36.429Z,98434.88
2018-09-10T07:40:04.107Z,98440.72
2018-09-10T07:42:31.748Z,98437.59
2018-09-10T07:44:59.394Z,98434.83
2018-09-10T07:47:27.026Z,98443.06
2018-09-10T07:49:54.660Z,98438.84
2018-09-10T07:52:22.235Z,98441.39
2018-09-10T07:54:49.885Z,98445.19
2018-09-10T07:57:17.494Z,98444.58
2018-09-10T07:59:45.055Z,98441.91
2018-09-10T08:02:12.776Z,98448.84
2018-09-10T08:04:40.402Z,98447.34
2018-09-10T08:07:08.079Z,98443.02
2018-09-10T08:09:35.730Z,98440.53
2018-09-10T08:12:03.386Z,98447.49
2018-09-10T08:14:30.994Z,98437.98
2018-09-10T08:16:58.658Z,98434.45
2018-09-10T08:19:26.304Z,98432.42
2018-09-10T08:21:53.884Z,98430.70
2018-09-10T08:24:21.603Z,98427.16
2018-09-10T08:26:49.123Z,98424.55
2018-09-10T08:29:16.728Z,98428.19
2018-09-10T08:31:44.406Z,98430.72
2018-09-10T08:34:12.001Z,98432.96
2018-09-10T08:36:39.608Z,98423.76
2018-09-10T08:39:07.615Z,98418.10
2018-09-10T08:41:35.196Z,98411.62
2018-09-10T08:44:02.776Z,98428.07
2018-09-10T08:46:30.408Z,98431.36
2018-09-10T08:48:58.054Z,98436.27
2018-09-10T08:51:25.640Z,98432.31
2018-09-10T08:53:53.343Z,98429.60
2018-09-10T08:56:21.235Z,98429.20
2018-09-10T08:58:48.665Z,98434.28
2018-09-10T09:01:16.299Z,98427.91
2018-09-10T09:03:43.902Z,98434.54
2018-09-10T09:06:11.493Z,98443.59
2018-09-10T09:08:39.099Z,98433.77
2018-09-10T09:11:06.748Z,98443.30
2018-09-10T09:13:34.412Z,98441.27
2018-09-10T09:16:02.015Z,98434.45
2018-09-10T09:18:29.607Z,98444.84
2018-09-10T09:20:57.234Z,98445.45
2018-09-10T09:23:24.956Z,98434.27
2018-09-10T09:25:52.543Z,98427.68
2018-09-10T09:28:20.326Z,98425.79
2018-09-10T09:30:47.964Z,98421.58
2018-09-10T09:33:15.535Z,98419.50
2018-09-10T09:35:48.788Z,98413.30
2018-09-10T09:38:22.044Z,98409.09
2018-09-10T09:40:55.272Z,98410.09
2018-09-10T09:43:28.419Z,98413.71
2018-09-10T09:46:01.613Z,98404.91
2018-09-10T09:48:29.212Z,98417.27
2018-09-10T09:50:56.803Z,98411.44
2018-09-10T09:53:24.410Z,98419.69
2018-09-10T09:55:52.119Z,98407.08
2018-09-10T09:58:19.717Z,98412.12
2018-09-10T10:00:50.028Z,98404.92
2018-09-10T10:03:22.180Z,98400.11
2018-09-10T10:05:49.999Z,98398.08
2018-09-10T10:08:17.678Z,98390.98
2018-09-10T10:10:45.279Z,98388.02
2018-09-10T10:13:12.895Z,98393.05
2018-09-10T10:15:40.480Z,98391.47
2018-09-10T10:18:08.082Z,98392.33
2018-09-10T10:20:35.727Z,98385.30
2018-09-10T10:23:03.370Z,98393.15
2018-09-10T10:25:32.039Z,98384.06
2018-09-10T10:27:59.710Z,98380.77
2018-09-10T10:30:27.365Z,98375.92
2018-09-10T10:32:55.012Z,98368.78
2018-09-10T10:35:22.667Z,98371.42
2018-09-10T10:37:50.301Z,98368.56
2018-09-10T10:40:18.101Z,98371.95
2018-09-10T10:42:46.160Z,98375.38
2018-09-10T10:45:14.311Z,98365.16
2018-09-10T10:47:42.428Z,98365.55
2018-09-10T10:50:10.547Z,98364.73
2018-09-10T10:52:38.591Z,98367.52
2018-09-10T10:55:06.842Z,98370.20
2018-09-10T10:57:34.793Z,98361.41
2018-09-10T11:00:02.584Z,98359.27
2018-09-10T11:02:30.393Z,98366.33
2018-09-10T11:04:58.275Z,98366.84
2018-09-10T11:07:26.518Z,98371.86
2018-09-10T11:09:54.489Z,98371.51
2018-09-10T11:12:22.592Z,98369.95
2018-09-10T11:14:50.852Z,98365.78
2018-09-10T11:17:19.092Z,98363.90
2018-09-10T11:19:46.940Z,98360.71
2018-09-10T11:22:14.769Z,98360.15
2018-09-10T11:24:42.610Z,98361.27
2018-09-10T11:27:10.428Z,98355.02
2018-09-10T11:29:38.685Z,98348.33
2018-09-10T11:32:06.574Z,98354.45
2018-09-10T11:34:34.532Z,98349.70
2018-09-10T11:37:02.512Z,98342.13
2018-09-10T11:39:30.477Z,98336.34
2018-09-10T11:41:58.444Z,98332.42
2018-09-10T11:44:26.328Z,98328.49
2018-09-10T11:46:54.291Z,98327.55
2018-09-10T11:49:22.113Z,98338.19
2018-09-10T11:51:50.029Z,98336.34
2018-09-10T11:54:18.113Z,98334.11
2018-09-10T11:56:46.137Z,98333.84
2018-09-10T11:59:13.970Z,98331.09
2018-09-10T12:01:41.900Z,98323.37
2018-09-10T12:04:09.744Z,98321.06
2018-09-10T12:06:37.706Z,98331.91
2018-09-10T12:09:07.040Z,98325.83
2018-09-10T12:11:34.901Z,98332.22
2018-09-10T12:14:02.824Z,98324.66
2018-09-10T12:16:30.687Z,98327.03
2018-09-10T12:18:58.829Z,98332.33
2018-09-10T12:21:26.658Z,98334.56
2018-09-10T12:23:54.504Z,98330.78
2018-09-10T12:26:22.505Z,98332.03
2018-09-10T12:28:50.763Z,98330.08
2018-09-10T12:31:18.717Z,98323.50
2018-09-10T12:33:46.673Z,98317.56
2018-09-10T12:36:14.477Z,98322.53
2018-09-10T12:38:42.457Z,98327.62
2018-09-10T12:41:10.723Z,98320.09
2018-09-10T12:43:38.592Z,98318.15
2018-09-10T12:46:06.649Z,98308.28
2018-09-10T12:48:34.592Z,98317.13
2018-09-10T12:51:02.516Z,98308.78
2018-09-10T12:53:30.622Z,98316.35
2018-09-10T12:55:58.663Z,98313.84
2018-09-10T12:58:26.844Z,98309.62
2018-09-10T13:00:54.598Z,98299.86
2018-09-10T13:03:22.486Z,98308.37
2018-09-10T13:05:50.444Z,98305.24
2018-09-10T13:08:18.329Z,98299.86
2018-09-10T13:10:46.321Z,98307.95
2018-09-10T13:13:14.152Z,98311.66
2018-09-10T13:15:42.063Z,98318.18
2018-09-10T13:18:09.946Z,98304.95
2018-09-10T13:20:37.808Z,98298.94
2018-09-10T13:23:05.762Z,98284.57
2018-09-10T13:25:33.795Z,98282.12
2018-09-10T13:28:01.878Z,98285.23
2018-09-10T13:30:29.868Z,98284.13
2018-09-10T13:32:57.685Z,98282.03
2018-09-10T13:35:25.841Z,98275.48
2018-09-10T13:37:53.707Z,98279.59
2018-09-10T13:40:21.530Z,98272.03
2018-09-10T13:42:49.586Z,98267.37
2018-09-10T13:45:17.494Z,98268.02
2018-09-10T13:47:45.492Z,98271.09
2018-09-10T13:50:13.388Z,98273.70
2018-09-10T13:52:41.248Z,98272.94
2018-09-10T13:55:09.141Z,98272.92
2018-09-10T13:57:37.186Z,98276.20
2018-09-10T14:00:05.183Z,98269.91
2018-09-10T14:02:33.490Z,98271.33
2018-09-10T14:05:01.422Z,98270.09
2018-09-10T14:07:29.573Z,98281.95
2018-09-10T14:09:57.512Z,98278.23
2018-09-10T14:12:25.353Z,98278.73
2018-09-10T14:14:53.312Z,98278.06
2018-09-10T14:17:21.232Z,98281.53
2018-09-10T14:19:49.172Z,98285.53
2018-09-10T14:22:17.321Z,98284.56
2018-09-10T14:24:45.157Z,98287.14
2018-09-10T14:27:13.006Z,98291.84
2018-09-10T14:29:40.876Z,98284.02
2018-09-10T14:32:08.756Z,98278.03
2018-09-10T14:34:36.883Z,98288.73
2018-09-10T14:37:04.948Z,98283.33
2018-09-10T14:39:32.770Z,98282.02
2018-09-10T14:42:00.828Z,98282.00
2018-09-10T14:44:28.689Z,98283.60
2018-09-10T14:46:56.619Z,98282.56
2018-09-10T14:49:24.658Z,98289.58
2018-09-10T14:51:52.511Z,98289.55
2018-09-10T14:54:20.411Z,98286.98
2018-09-10T14:56:48.258Z,98286.89
2018-09-10T14:59:16.130Z,98290.25
2018-09-10T15:01:44.031Z,98287.57
2018-09-10T15:04:12.219Z,98290.89
2018-09-10T15:06:40.048Z,98293.34
2018-09-10T15:09:08.875Z,98293.61
2018-09-10T15:11:36.817Z,98291.87
2018-09-10T15:14:04.801Z,98291.11
2018-09-10T15:16:32.694Z,98286.16
2018-09-10T15:19:01.097Z,98286.43
2018-09-10T15:21:29.024Z,98285.94
2018-09-10T15:23:57.375Z,98290.70
2018-09-10T15:26:25.367Z,98293.30
2018-09-10T15:28:53.242Z,98285.84
2018-09-10T15:31:21.057Z,98286.42
2018-09-10T15:33:49.015Z,98291.03
2018-09-10T15:36:16.868Z,98280.00
2018-09-10T15:38:44.780Z,98276.04
2018-09-10T15:41:12.616Z,98267.64
2018-09-10T15:43:40.683Z,98261.44
2018-09-10T15:46:08.574Z,98267.80
2018-09-10T15:48:36.432Z,98265.43
2018-09-10T15:51:04.532Z,98266.37
2018-09-10T15:53:32.480Z,98262.78
2018-09-10T15:56:00.651Z,98262.23
2018-09-10T15:58:28.521Z,98254.10
2018-09-10T16:00:56.435Z,98251.67
2018-09-10T16:03:24.285Z,98251.53
2018-09-10T16:05:52.545Z,98249.72
2018-09-10T16:08:20.698Z,98248.69
2018-09-10T16:10:48.611Z,98253.47
2018-09-10T16:13:16.982Z,98256.27
2018-09-10T16:15:44.900Z,98250.98
2018-09-10T16:18:12.714Z,98257.70
2018-09-10T16:20:40.594Z,98252.88
2018-09-10T16:23:08.485Z,98257.05
2018-09-10T16:25:36.454Z,98260.34
2018-09-10T16:28:04.349Z,98259.16
2018-09-10T16:30:32.209Z,98262.88
2018-09-10T16:33:00.252Z,98260.16
2018-09-10T16:35:28.119Z,98267.45
2018-09-10T16:37:56.053Z,98262.10
2018-09-10T16:40:23.880Z,98268.28
2018-09-10T16:42:51.743Z,98273.41
2018-09-10T16:45:19.847Z,98280.44
2018-09-10T16:47:47.682Z,98276.48
2018-09-10T16:50:15.492Z,98278.30
2018-09-10T16:52:43.574Z,98276.31
2018-09-10T16:55:11.395Z,98273.51
2018-09-10T16:57:39.474Z,98277.44
2018-09-10T17:00:07.575Z,98274.98
2018-09-10T17:02:35.410Z,98268.84
2018-09-10T17:05:03.769Z,98271.78
2018-09-10T17:07:31.693Z,98277.73
2018-09-10T17:09:59.528Z,98273.19
2018-09-10T17:12:27.657Z,98265.52
2018-09-10T17:14:55.814Z,98264.64
2018-09-10T17:17:23.849Z,98270.13
2018-09-10T17:19:51.600Z,98271.00
2018-09-10T17:22:19.503Z,98276.37
2018-09-10T17:24:47.271Z,98279.83
2018-09-10T17:27:15.334Z,98275.36
2018-09-10T17:29:43.348Z,98277.50
2018-09-10T17:32:11.264Z,98275.77
2018-09-10T17:34:39.428Z,98271.13
2018-09-10T17:37:07.501Z,98274.27
2018-09-10T17:39:35.290Z,98270.23
2018-09-10T17:42:03.265Z,98264.67
2018-09-10T17:44:31.747Z,98259.27
2018-09-10T17:46:59.709Z,98273.33
2018-09-10T17:49:27.489Z,98276.05
2018-09-10T17:51:55.678Z,98274.31
2018-09-10T17:54:23.917Z,98277.41
2018-09-10T17:56:51.725Z,98280.61
2018-09-10T17:59:19.609Z,98293.61
2018-09-10T18:01:47.442Z,98291.77
2018-09-10T18:04:15.324Z,98297.24
2018-09-10T18:06:43.491Z,98298.55
2018-09-10T18:09:12.234Z,98283.12
2018-09-10T18:11:40.474Z,98286.27
2018-09-10T18:14:08.398Z,98285.76
2018-09-10T18:16:36.312Z,98295.63
2018-09-10T18:19:04.941Z,98297.88
2018-09-10T18:21:33.747Z,98300.59
2018-09-10T18:24:01.555Z,98298.89
2018-09-10T18:26:29.687Z,98306.98
2018-09-10T18:28:57.715Z,98305.12
2018-09-10T18:31:25.651Z,98318.22
2018-09-10T18:33:53.720Z,98320.40
2018-09-10T18:36:21.746Z,98316.70
2018-09-10T18:38:49.982Z,98321.81
2018-09-10T18:41:18.050Z,98325.08
2018-09-10T18:43:46.056Z,98327.74
2018-09-10T18:46:14.117Z,98327.17
2018-09-10T18:48:42.583Z,98324.34
2018-09-10T18:51:10.686Z,98330.84
2018-09-10T18:53:38.529Z,98328.56
2018-09-10T18:56:06.417Z,98326.30
2018-09-10T18:58:34.548Z,98321.08
2018-09-10T19:01:02.401Z,98322.38
2018-09-10T19:03:30.323Z,98322.71
2018-09-10T19:05:58.434Z,98321.44
2018-09-10T19:08:26.328Z,98317.23
2018-09-10T19:10:54.428Z,98323.14
2018-09-10T19:13:22.633Z,98317.95
2018-09-10T19:15:50.711Z,98310.66
2018-09-10T19:18:19.673Z,98309.47
2018-09-10T19:20:47.935Z,98307.45
2018-09-10T19:23:15.840Z,98296.02
2018-09-10T19:25:43.691Z,98308.05
2018-09-10T19:28:11.872Z,98311.09
2018-09-10T19:30:40.021Z,98306.03
2018-09-10T19:33:08.025Z,98303.66
2018-09-10T19:35:36.329Z,98308.66
2018-09-10T19:38:04.388Z,98316.96
2018-09-10T19:40:32.238Z,98324.89
2018-09-10T19:43:00.496Z,98327.53
2018-09-10T19:45:28.619Z,98322.94
2018-09-10T19:47:56.574Z,98315.44
2018-09-10T19:50:24.830Z,98313.42
2018-09-10T19:52:52.899Z,98306.80
2018-09-10T19:55:21.165Z,98306.58
2018-09-10T19:57:49.357Z,98302.98
2018-09-10T20:00:17.461Z,98305.38
2018-09-10T20:02:45.431Z,98309.81
2018-09-10T20:05:13.635Z,98314.41
2018-09-10T20:07:41.586Z,98313.91
2018-09-10T20:10:09.804Z,98302.48
2018-09-10T20:12:37.989Z,98300.66
2018-09-10T20:15:06.275Z,98296.08
2018-09-10T20:17:34.236Z,98297.30
2018-09-10T20:20:02.313Z,98296.43
2018-09-10T20:22:30.253Z,98298.92
2018-09-10T20:24:58.127Z,98304.62
2018-09-10T20:27:26.216Z,98317.78
2018-09-10T20:29:54.050Z,98322.90
2018-09-10T20:32:22.126Z,98322.38
2018-09-10T20:34:50.044Z,98317.48
2018-09-10T20:37:17.967Z,98322.27
2018-09-10T20:39:46.008Z,98307.91
2018-09-10T20:42:14.300Z,98302.70
2018-09-10T20:44:42.265Z,98308.55
2018-09-10T20:47:10.066Z,98324.87
2018-09-10T20:49:38.550Z,98323.80
2018-09-10T20:52:06.545Z,98320.67
2018-09-10T20:54:34.394Z,98329.26
2018-09-10T20:57:02.441Z,98317.47
2018-09-10T20:59:30.346Z,98314.12
2018-09-10T21:01:58.424Z,98313.23
2018-09-10T21:04:26.308Z,98310.22
2018-09-10T21:06:54.271Z,98308.80
2018-09-10T21:09:22.226Z,98308.58
2018-09-10T21:11:50.136Z,98313.91
2018-09-10T21:14:18.172Z,98314.56
2018-09-10T21:16:46.259Z,98314.78
2018-09-10T21:19:14.161Z,98317.80
2018-09-10T21:21:42.187Z,98318.45
2018-09-10T21:24:10.265Z,98319.32
2018-09-10T21:26:38.369Z,98323.02
2018-09-10T21:29:06.195Z,98333.64
2018-09-10T21:31:33.979Z,98336.15
2018-09-10T21:34:01.773Z,98339.39
2018-09-10T21:36:29.614Z,98328.20
2018-09-10T21:38:57.589Z,98338.06
2018-09-10T21:41:25.691Z,98338.39
2018-09-10T21:43:53.947Z,98345.09
2018-09-10T21:46:21.805Z,98350.30
2018-09-10T21:48:49.609Z,98352.36
2018-09-10T21:51:17.681Z,98347.48
2018-09-10T21:53:45.706Z,98356.06
2018-09-10T21:56:13.576Z,98355.83
2018-09-10T21:58:41.756Z,98361.16
2018-09-10T22:01:09.645Z,98360.45
2018-09-10T22:03:37.453Z,98362.04
2018-09-10T22:06:05.289Z,98358.89
2018-09-10T22:08:33.487Z,98357.81
2018-09-10T22:11:01.568Z,98356.57
2018-09-10T22:13:29.689Z,98364.06
2018-09-10T22:15:57.789Z,98359.72
2018-09-10T22:18:25.738Z,98366.36
2018-09-10T22:20:53.617Z,98372.41
2018-09-10T22:23:21.601Z,98363.16
2018-09-10T22:25:49.505Z,98364.33
2018-09-10T22:28:17.541Z,98360.94
2018-09-10T22:30:45.432Z,98362.55
2018-09-10T22:33:13.332Z,98358.41
2018-09-10T22:35:41.169Z,98359.48
2018-09-10T22:38:09.336Z,98355.43
2018-09-10T22:40:37.427Z,98356.95
2018-09-10T22:43:05.274Z,98362.48
2018-09-10T22:45:33.455Z,98366.53
2018-09-10T22:48:01.372Z,98364.66
2018-09-10T22:50:29.200Z,98360.38
2018-09-10T22:52:57.166Z,98356.39
2018-09-10T22:55:25.093Z,98367.34
2018-09-10T22:57:52.896Z,98374.52
2018-09-10T23:00:20.789Z,98374.39
2018-09-10T23:02:48.786Z,98373.95
2018-09-10T23:05:16.721Z,98373.27
2018-09-10T23:07:44.498Z,98373.22
2018-09-10T23:10:12.429Z,98379.41
2018-09-10T23:12:40.343Z,98376.72
2018-09-10T23:15:08.397Z,98376.39
2018-09-10T23:17:36.221Z,98378.20
2018-09-10T23:20:04.661Z,98379.28
2018-09-10T23:22:32.555Z,98381.97
2018-09-10T23:25:00.434Z,98379.73
2018-09-10T23:27:28.111Z,98391.44
2018-09-10T23:29:55.938Z,98392.88
2018-09-10T23:32:23.994Z,98395.70
2018-09-10T23:34:51.882Z,98397.30
2018-09-10T23:37:19.874Z,98399.66
2018-09-10T23:39:47.775Z,98393.78
2018-09-10T23:42:15.622Z,98396.38
2018-09-10T23:44:43.556Z,98396.78
2018-09-10T23:47:11.381Z,98389.93
2018-09-10T23:49:39.212Z,98390.20
2018-09-10T23:52:07.186Z,98393.45
2018-09-10T23:54:35.194Z,98391.28
2018-09-10T23:57:03.155Z,98396.55
2018-09-10T23:59:30.821Z,98399.66
